sensor_id;sensor_type;location;lat;lon;timestamp;pressure;altitude;pressure_sealevel;temperature;humidity
74125;BME280;62475;52.192;5.396;2022-09-23T00:01:14;101910.69;;;10.64;88.76
74125;BME280;62475;52.192;5.396;2022-09-23T00:03:41;101920.31;;;10.61;89.87
74125;BME280;62475;52.192;5.396;2022-09-23T00:06:09;101916.16;;;10.54;89.67
74125;BME280;62475;52.192;5.396;2022-09-23T00:08:36;101907.59;;;10.45;89.18
74125;BME280;62475;52.192;5.396;2022-09-23T00:11:06;101913.69;;;10.57;89.51
74125;BME280;62475;52.192;5.396;2022-09-23T00:13:37;101890.81;;;10.37;89.80
74125;BME280;62475;52.192;5.396;2022-09-23T00:16:04;101896.88;;;10.44;89.75
74125;BME280;62475;52.192;5.396;2022-09-23T00:18:31;101906.25;;;10.48;89.77
74125;BME280;62475;52.192;5.396;2022-09-23T00:20:56;101844.25;;;10.10;89.38
74125;BME280;62475;52.192;5.396;2022-09-23T00:23:22;101916.66;;;10.41;89.92
74125;BME280;62475;52.192;5.396;2022-09-23T00:25:55;101901.50;;;10.33;90.25
74125;BME280;62475;52.192;5.396;2022-09-23T00:28:20;101886.72;;;10.44;89.70
74125;BME280;62475;52.192;5.396;2022-09-23T00:30:46;101897.47;;;10.56;89.13
74125;BME280;62475;52.192;5.396;2022-09-23T00:33:11;101886.72;;;10.44;89.24
74125;BME280;62475;52.192;5.396;2022-09-23T00:35:36;101902.97;;;10.56;88.72
74125;BME280;62475;52.192;5.396;2022-09-23T00:38:02;101911.75;;;10.48;89.48
74125;BME280;62475;52.192;5.396;2022-09-23T00:40:28;101894.69;;;10.41;89.50
74125;BME280;62475;52.192;5.396;2022-09-23T00:42:53;101885.06;;;10.48;89.43
74125;BME280;62475;52.192;5.396;2022-09-23T00:45:18;101882.06;;;10.50;89.50
74125;BME280;62475;52.192;5.396;2022-09-23T00:47:51;101885.06;;;10.48;89.39
74125;BME280;62475;52.192;5.396;2022-09-23T00:50:28;101887.06;;;10.58;88.84
74125;BME280;62475;52.192;5.396;2022-09-23T00:52:57;101872.16;;;10.44;89.72
74125;BME280;62475;52.192;5.396;2022-09-23T00:55:27;101871.88;;;10.40;88.88
74125;BME280;62475;52.192;5.396;2022-09-23T00:57:55;101875.19;;;10.47;89.24
74125;BME280;62475;52.192;5.396;2022-09-23T01:00:25;101871.63;;;10.52;88.92
74125;BME280;62475;52.192;5.396;2022-09-23T01:02:50;101859.50;;;10.43;88.44
74125;BME280;62475;52.192;5.396;2022-09-23T01:05:16;101876.47;;;10.29;89.94
74125;BME280;62475;52.192;5.396;2022-09-23T01:07:42;101872.59;;;10.25;90.36
74125;BME280;62475;52.192;5.396;2022-09-23T01:10:09;101875.03;;;10.17;90.21
74125;BME280;62475;52.192;5.396;2022-09-23T01:12:41;101881.09;;;10.19;90.47
74125;BME280;62475;52.192;5.396;2022-09-23T01:15:23;101870.66;;;10.16;90.33
74125;BME280;62475;52.192;5.396;2022-09-23T01:18:07;101863.66;;;9.98;90.56
74125;BME280;62475;52.192;5.396;2022-09-23T01:20:40;101876.91;;;10.11;91.28
74125;BME280;62475;52.192;5.396;2022-09-23T01:31:37;101873.50;;;9.94;91.26
74125;BME280;62475;52.192;5.396;2022-09-23T01:34:21;101867.72;;;9.96;92.28
74125;BME280;62475;52.192;5.396;2022-09-23T01:37:01;101869.97;;;9.99;91.51
74125;BME280;62475;52.192;5.396;2022-09-23T01:39:37;101865.78;;;9.91;91.20
74125;BME280;62475;52.192;5.396;2022-09-23T01:42:31;101850.91;;;9.82;91.88
74125;BME280;62475;52.192;5.396;2022-09-23T01:47:40;101855.31;;;9.83;92.06
74125;BME280;62475;52.192;5.396;2022-09-23T01:50:11;101854.19;;;9.79;91.77
74125;BME280;62475;52.192;5.396;2022-09-23T01:53:01;101853.69;;;9.87;92.19
74125;BME280;62475;52.192;5.396;2022-09-23T01:55:38;101852.59;;;9.83;92.68
74125;BME280;62475;52.192;5.396;2022-09-23T02:00:36;101840.66;;;9.68;92.02
74125;BME280;62475;52.192;5.396;2022-09-23T02:03:15;101869.50;;;9.75;92.52
74125;BME280;62475;52.192;5.396;2022-09-23T02:06:00;101850.88;;;9.77;92.01
74125;BME280;62475;52.192;5.396;2022-09-23T02:08:33;101849.25;;;9.76;91.61
74125;BME280;62475;52.192;5.396;2022-09-23T02:11:06;101842.38;;;9.79;91.75
74125;BME280;62475;52.192;5.396;2022-09-23T02:13:49;101838.25;;;9.76;92.23
74125;BME280;62475;52.192;5.396;2022-09-23T02:16:35;101836.28;;;9.72;92.77
74125;BME280;62475;52.192;5.396;2022-09-23T02:19:36;101834.97;;;9.79;92.06
74125;BME280;62475;52.192;5.396;2022-09-23T02:22:18;101841.53;;;9.78;91.85
74125;BME280;62475;52.192;5.396;2022-09-23T02:24:45;101832.47;;;9.73;92.86
74125;BME280;62475;52.192;5.396;2022-09-23T02:30:11;101827.28;;;9.76;92.36
74125;BME280;62475;52.192;5.396;2022-09-23T02:35:54;101813.78;;;9.70;92.75
74125;BME280;62475;52.192;5.396;2022-09-23T02:38:51;101813.59;;;9.81;92.10
74125;BME280;62475;52.192;5.396;2022-09-23T02:41:32;101778.75;;;9.40;92.94
74125;BME280;62475;52.192;5.396;2022-09-23T02:44:02;101807.09;;;9.56;92.36
74125;BME280;62475;52.192;5.396;2022-09-23T02:46:30;101789.50;;;9.47;92.68
74125;BME280;62475;52.192;5.396;2022-09-23T02:48:59;101790.91;;;9.54;91.90
74125;BME280;62475;52.192;5.396;2022-09-23T02:51:28;101790.31;;;9.47;93.25
74125;BME280;62475;52.192;5.396;2022-09-23T02:53:56;101788.13;;;9.49;92.48
74125;BME280;62475;52.192;5.396;2022-09-23T02:56:23;101785.06;;;9.41;92.80
74125;BME280;62475;52.192;5.396;2022-09-23T02:58:50;101789.22;;;9.48;92.76
74125;BME280;62475;52.192;5.396;2022-09-23T03:01:34;101794.16;;;9.46;93.37
74125;BME280;62475;52.192;5.396;2022-09-23T03:04:07;101796.53;;;9.33;93.30
74125;BME280;62475;52.192;5.396;2022-09-23T03:09:17;101786.34;;;9.33;94.00
74125;BME280;62475;52.192;5.396;2022-09-23T03:11:49;101779.94;;;9.17;94.50
74125;BME280;62475;52.192;5.396;2022-09-23T03:14:24;101787.38;;;9.22;94.30
74125;BME280;62475;52.192;5.396;2022-09-23T03:19:22;101782.47;;;9.24;94.16
74125;BME280;62475;52.192;5.396;2022-09-23T03:22:04;101781.91;;;9.22;93.75
74125;BME280;62475;52.192;5.396;2022-09-23T03:24:32;101777.50;;;9.21;93.91
74125;BME280;62475;52.192;5.396;2022-09-23T03:27:03;101778.72;;;9.03;94.01
74125;BME280;62475;52.192;5.396;2022-09-23T03:29:30;101774.63;;;9.06;94.42
74125;BME280;62475;52.192;5.396;2022-09-23T03:31:58;101777.38;;;9.06;95.40
74125;BME280;62475;52.192;5.396;2022-09-23T03:34:27;101764.84;;;9.15;94.48
74125;BME280;62475;52.192;5.396;2022-09-23T03:37:07;101771.75;;;9.23;93.33
74125;BME280;62475;52.192;5.396;2022-09-23T03:39:39;101755.75;;;9.09;94.53
74125;BME280;62475;52.192;5.396;2022-09-23T03:42:12;101778.81;;;9.13;94.42
74125;BME280;62475;52.192;5.396;2022-09-23T03:44:45;101758.72;;;9.03;94.57
74125;BME280;62475;52.192;5.396;2022-09-23T03:47:12;101771.16;;;9.15;93.77
74125;BME280;62475;52.192;5.396;2022-09-23T03:49:39;101772.81;;;9.16;94.47
74125;BME280;62475;52.192;5.396;2022-09-23T03:52:06;101763.75;;;9.16;93.41
74125;BME280;62475;52.192;5.396;2022-09-23T03:54:31;101749.75;;;9.12;93.93
74125;BME280;62475;52.192;5.396;2022-09-23T03:56:59;101755.41;;;9.33;93.56
74125;BME280;62475;52.192;5.396;2022-09-23T03:59:25;101757.28;;;9.27;93.39
74125;BME280;62475;52.192;5.396;2022-09-23T04:01:51;101761.03;;;9.21;93.34
74125;BME280;62475;52.192;5.396;2022-09-23T04:04:17;101751.78;;;9.27;93.91
74125;BME280;62475;52.192;5.396;2022-09-23T04:06:42;101744.22;;;9.44;93.10
74125;BME280;62475;52.192;5.396;2022-09-23T04:09:08;101743.66;;;9.42;92.19
74125;BME280;62475;52.192;5.396;2022-09-23T04:11:33;101739.81;;;9.38;93.32
74125;BME280;62475;52.192;5.396;2022-09-23T04:13:59;101737.88;;;9.39;93.50
74125;BME280;62475;52.192;5.396;2022-09-23T04:16:24;101734.84;;;9.35;93.11
74125;BME280;62475;52.192;5.396;2022-09-23T04:18:50;101744.75;;;9.41;93.88
74125;BME280;62475;52.192;5.396;2022-09-23T04:21:15;101745.84;;;9.40;92.65
74125;BME280;62475;52.192;5.396;2022-09-23T04:23:40;101727.72;;;9.34;93.58
74125;BME280;62475;52.192;5.396;2022-09-23T04:26:06;101745.84;;;9.40;92.51
74125;BME280;62475;52.192;5.396;2022-09-23T04:28:31;101762.22;;;9.30;93.56
74125;BME280;62475;52.192;5.396;2022-09-23T04:30:57;101727.84;;;9.17;93.55
74125;BME280;62475;52.192;5.396;2022-09-23T04:33:24;101742.19;;;9.30;93.38
74125;BME280;62475;52.192;5.396;2022-09-23T04:35:50;101724.94;;;9.29;94.19
74125;BME280;62475;52.192;5.396;2022-09-23T04:38:16;101726.53;;;9.25;93.04
74125;BME280;62475;52.192;5.396;2022-09-23T04:40:42;101733.47;;;9.33;93.46
74125;BME280;62475;52.192;5.396;2022-09-23T04:43:07;101724.97;;;9.34;93.44
74125;BME280;62475;52.192;5.396;2022-09-23T04:45:36;101717.72;;;9.18;93.12
74125;BME280;62475;52.192;5.396;2022-09-23T04:48:02;101735.34;;;9.27;92.90
74125;BME280;62475;52.192;5.396;2022-09-23T04:50:27;101735.03;;;9.24;93.29
74125;BME280;62475;52.192;5.396;2022-09-23T04:52:53;101721.38;;;9.29;93.52
74125;BME280;62475;52.192;5.396;2022-09-23T04:55:19;101740.28;;;9.30;93.09
74125;BME280;62475;52.192;5.396;2022-09-23T04:57:44;101729.31;;;9.30;93.50
74125;BME280;62475;52.192;5.396;2022-09-23T05:00:10;101737.81;;;9.29;94.08
74125;BME280;62475;52.192;5.396;2022-09-23T05:02:47;101734.75;;;9.20;93.99
74125;BME280;62475;52.192;5.396;2022-09-23T05:05:14;101730.94;;;9.26;94.24
74125;BME280;62475;52.192;5.396;2022-09-23T05:07:47;101722.41;;;9.23;93.14
74125;BME280;62475;52.192;5.396;2022-09-23T05:10:14;101722.75;;;9.31;93.99
74125;BME280;62475;52.192;5.396;2022-09-23T05:12:39;101725.50;;;9.31;93.61
74125;BME280;62475;52.192;5.396;2022-09-23T05:15:05;101708.69;;;9.23;93.64
74125;BME280;62475;52.192;5.396;2022-09-23T05:17:30;101726.03;;;9.33;93.07
74125;BME280;62475;52.192;5.396;2022-09-23T05:19:57;101715.59;;;9.30;93.78
74125;BME280;62475;52.192;5.396;2022-09-23T05:22:23;101723.09;;;9.40;93.82
74125;BME280;62475;52.192;5.396;2022-09-23T05:24:50;101730.81;;;9.48;93.15
74125;BME280;62475;52.192;5.396;2022-09-23T05:27:15;101694.75;;;9.24;92.79
74125;BME280;62475;52.192;5.396;2022-09-23T05:29:40;101731.06;;;9.41;93.81
74125;BME280;62475;52.192;5.396;2022-09-23T05:32:06;101731.06;;;9.46;93.23
74125;BME280;62475;52.192;5.396;2022-09-23T05:34:32;101726.13;;;9.43;92.90
74125;BME280;62475;52.192;5.396;2022-09-23T05:36:57;101740.16;;;9.52;92.64
74125;BME280;62475;52.192;5.396;2022-09-23T05:39:22;101727.25;;;9.52;92.82
74125;BME280;62475;52.192;5.396;2022-09-23T05:41:48;101734.44;;;9.58;92.72
74125;BME280;62475;52.192;5.396;2022-09-23T05:44:13;101739.13;;;9.63;93.08
74125;BME280;62475;52.192;5.396;2022-09-23T05:46:38;101725.91;;;9.55;92.96
74125;BME280;62475;52.192;5.396;2022-09-23T05:49:04;101734.47;;;9.63;92.62
74125;BME280;62475;52.192;5.396;2022-09-23T05:51:31;101729.56;;;9.70;92.60
74125;BME280;62475;52.192;5.396;2022-09-23T05:53:57;101722.66;;;9.63;92.08
74125;BME280;62475;52.192;5.396;2022-09-23T05:56:24;101737.22;;;9.68;92.40
74125;BME280;62475;52.192;5.396;2022-09-23T05:58:53;101736.16;;;9.69;92.40
74125;BME280;62475;52.192;5.396;2022-09-23T06:01:23;101741.13;;;9.77;92.87
74125;BME280;62475;52.192;5.396;2022-09-23T06:03:50;101727.69;;;9.81;92.49
74125;BME280;62475;52.192;5.396;2022-09-23T06:06:17;101704.31;;;9.68;91.97
74125;BME280;62475;52.192;5.396;2022-09-23T06:08:44;101739.81;;;9.90;91.92
74125;BME280;62475;52.192;5.396;2022-09-23T06:11:10;101741.22;;;9.97;91.05
74125;BME280;62475;52.192;5.396;2022-09-23T06:13:36;101732.44;;;9.95;92.19
74125;BME280;62475;52.192;5.396;2022-09-23T06:16:08;101715.13;;;9.90;92.37
74125;BME280;62475;52.192;5.396;2022-09-23T06:18:34;101731.63;;;9.95;91.47
74125;BME280;62475;52.192;5.396;2022-09-23T06:21:01;101733.53;;;9.99;91.36
74125;BME280;62475;52.192;5.396;2022-09-23T06:23:26;101719.53;;;9.96;91.73
74125;BME280;62475;52.192;5.396;2022-09-23T06:25:52;101696.16;;;9.83;90.91
74125;BME280;62475;52.192;5.396;2022-09-23T06:28:18;101721.81;;;10.09;91.94
74125;BME280;62475;52.192;5.396;2022-09-23T06:30:44;101718.25;;;10.13;91.32
74125;BME280;62475;52.192;5.396;2022-09-23T06:33:09;101719.34;;;10.12;92.01
74125;BME280;62475;52.192;5.396;2022-09-23T06:35:34;101716.34;;;10.14;90.87
74125;BME280;62475;52.192;5.396;2022-09-23T06:38:03;101717.75;;;10.26;90.98
74125;BME280;62475;52.192;5.396;2022-09-23T06:40:29;101711.44;;;10.26;91.24
74125;BME280;62475;52.192;5.396;2022-09-23T06:42:59;101729.88;;;10.41;90.76
74125;BME280;62475;52.192;5.396;2022-09-23T06:45:25;101727.94;;;10.46;90.54
74125;BME280;62475;52.192;5.396;2022-09-23T06:47:55;101726.03;;;10.52;89.69
74125;BME280;62475;52.192;5.396;2022-09-23T06:50:22;101728.28;;;10.65;89.20
74125;BME280;62475;52.192;5.396;2022-09-23T06:52:52;101730.19;;;10.74;89.53
74125;BME280;62475;52.192;5.396;2022-09-23T06:55:23;101727.44;;;10.84;88.96
74125;BME280;62475;52.192;5.396;2022-09-23T06:57:49;101715.38;;;10.90;87.89
74125;BME280;62475;52.192;5.396;2022-09-23T07:00:14;101732.41;;;11.02;87.14
74125;BME280;62475;52.192;5.396;2022-09-23T07:02:40;101719.50;;;11.03;86.84
74125;BME280;62475;52.192;5.396;2022-09-23T07:05:07;101730.47;;;11.18;87.16
74125;BME280;62475;52.192;5.396;2022-09-23T07:07:32;101734.06;;;11.23;85.71
74125;BME280;62475;52.192;5.396;2022-09-23T07:09:57;101725.78;;;11.28;86.22
74125;BME280;62475;52.192;5.396;2022-09-23T07:12:23;101737.88;;;11.37;86.08
74125;BME280;62475;52.192;5.396;2022-09-23T07:14:48;101732.94;;;11.39;85.52
74125;BME280;62475;52.192;5.396;2022-09-23T07:17:13;101725.75;;;11.43;85.09
74125;BME280;62475;52.192;5.396;2022-09-23T07:19:39;101725.47;;;11.45;84.19
74125;BME280;62475;52.192;5.396;2022-09-23T07:22:04;101730.16;;;11.50;84.34
74125;BME280;62475;52.192;5.396;2022-09-23T07:24:29;101734.53;;;11.56;85.27
74125;BME280;62475;52.192;5.396;2022-09-23T07:26:55;101710.34;;;11.53;84.51
74125;BME280;62475;52.192;5.396;2022-09-23T07:29:20;101714.72;;;11.64;83.41
74125;BME280;62475;52.192;5.396;2022-09-23T07:31:45;101729.00;;;11.81;83.87
74125;BME280;62475;52.192;5.396;2022-09-23T07:34:11;101723.75;;;11.84;83.45
74125;BME280;62475;52.192;5.396;2022-09-23T07:36:37;101730.34;;;11.83;83.40
74125;BME280;62475;52.192;5.396;2022-09-23T07:39:05;101722.91;;;11.89;83.77
74125;BME280;62475;52.192;5.396;2022-09-23T07:41:32;101729.47;;;12.03;83.17
74125;BME280;62475;52.192;5.396;2022-09-23T07:43:58;101723.63;;;12.19;82.39
74125;BME280;62475;52.192;5.396;2022-09-23T07:46:34;101714.53;;;12.19;81.46
74125;BME280;62475;52.192;5.396;2022-09-23T07:49:00;101735.06;;;12.41;81.82
74125;BME280;62475;52.192;5.396;2022-09-23T07:51:29;101727.34;;;12.43;80.94
74125;BME280;62475;52.192;5.396;2022-09-23T07:53:56;101749.00;;;12.60;81.05
74125;BME280;62475;52.192;5.396;2022-09-23T07:56:27;101731.16;;;12.47;81.32
74125;BME280;62475;52.192;5.396;2022-09-23T07:58:53;101731.72;;;12.44;81.86
74125;BME280;62475;52.192;5.396;2022-09-23T08:01:26;101740.34;;;12.77;80.87
74125;BME280;62475;52.192;5.396;2022-09-23T08:03:53;101736.75;;;12.76;80.95
74125;BME280;62475;52.192;5.396;2022-09-23T08:06:21;101729.19;;;12.92;80.51
74125;BME280;62475;52.192;5.396;2022-09-23T08:08:50;101731.31;;;13.00;78.64
74125;BME280;62475;52.192;5.396;2022-09-23T08:11:16;101722.53;;;13.03;78.52
74125;BME280;62475;52.192;5.396;2022-09-23T08:13:42;101724.84;;;13.19;78.96
74125;BME280;62475;52.192;5.396;2022-09-23T08:16:07;101688.84;;;13.06;78.28
74125;BME280;62475;52.192;5.396;2022-09-23T08:18:33;101728.25;;;13.40;77.55
74125;BME280;62475;52.192;5.396;2022-09-23T08:20:58;101720.91;;;13.30;76.87
74125;BME280;62475;52.192;5.396;2022-09-23T08:23:24;101732.56;;;13.51;78.22
74125;BME280;62475;52.192;5.396;2022-09-23T08:25:56;101717.56;;;13.57;77.66
74125;BME280;62475;52.192;5.396;2022-09-23T08:28:24;101722.34;;;13.75;76.77
74125;BME280;62475;52.192;5.396;2022-09-23T08:30:50;101729.81;;;13.98;77.01
74125;BME280;62475;52.192;5.396;2022-09-23T08:33:18;101723.16;;;13.99;76.82
74125;BME280;62475;52.192;5.396;2022-09-23T08:35:44;101716.00;;;13.98;75.21
74125;BME280;62475;52.192;5.396;2022-09-23T08:38:09;101699.97;;;14.00;73.44
74125;BME280;62475;52.192;5.396;2022-09-23T08:40:36;101710.56;;;14.12;74.29
74125;BME280;62475;52.192;5.396;2022-09-23T08:43:10;101716.06;;;14.35;75.49
74125;BME280;62475;52.192;5.396;2022-09-23T08:45:42;101711.81;;;14.43;74.31
74125;BME280;62475;52.192;5.396;2022-09-23T08:48:14;101722.56;;;14.63;73.76
74125;BME280;62475;52.192;5.396;2022-09-23T08:50:45;101726.84;;;14.74;73.00
74125;BME280;62475;52.192;5.396;2022-09-23T08:53:24;101730.56;;;14.83;72.67
74125;BME280;62475;52.192;5.396;2022-09-23T08:55:54;101717.56;;;14.84;72.20
74125;BME280;62475;52.192;5.396;2022-09-23T08:58:43;101720.31;;;15.02;72.09
74125;BME280;62475;52.192;5.396;2022-09-23T09:03:50;101721.81;;;15.27;71.67
74125;BME280;62475;52.192;5.396;2022-09-23T09:06:21;101715.44;;;15.26;70.55
74125;BME280;62475;52.192;5.396;2022-09-23T09:08:54;101709.28;;;15.29;71.36
74125;BME280;62475;52.192;5.396;2022-09-23T09:11:22;101689.78;;;15.21;70.43
74125;BME280;62475;52.192;5.396;2022-09-23T09:14:00;101716.97;;;15.51;72.00
74125;BME280;62475;52.192;5.396;2022-09-23T09:19:12;101715.97;;;15.74;68.92
74125;BME280;62475;52.192;5.396;2022-09-23T09:21:43;101697.19;;;15.71;69.18
74125;BME280;62475;52.192;5.396;2022-09-23T09:24:45;101718.41;;;16.03;68.20
74125;BME280;62475;52.192;5.396;2022-09-23T09:27:12;101707.53;;;16.06;68.12
74125;BME280;62475;52.192;5.396;2022-09-23T09:29:44;101682.03;;;16.18;66.85
74125;BME280;62475;52.192;5.396;2022-09-23T09:32:24;101708.00;;;16.35;63.40
74125;BME280;62475;52.192;5.396;2022-09-23T09:34:57;101699.56;;;16.40;63.60
74125;BME280;62475;52.192;5.396;2022-09-23T09:37:31;101698.97;;;16.30;63.39
74125;BME280;62475;52.192;5.396;2022-09-23T09:40:00;101696.78;;;16.40;64.84
74125;BME280;62475;52.192;5.396;2022-09-23T09:42:32;101701.63;;;16.48;63.20
74125;BME280;62475;52.192;5.396;2022-09-23T09:45:03;101693.63;;;16.33;62.66
74125;BME280;62475;52.192;5.396;2022-09-23T09:47:47;101698.03;;;16.48;63.88
74125;BME280;62475;52.192;5.396;2022-09-23T09:53:25;101677.13;;;16.15;63.40
74125;BME280;62475;52.192;5.396;2022-09-23T09:56:03;101699.19;;;16.20;63.25
74125;BME280;62475;52.192;5.396;2022-09-23T09:58:34;101680.53;;;16.12;63.53
74125;BME280;62475;52.192;5.396;2022-09-23T10:01:05;101690.16;;;16.28;62.53
74125;BME280;62475;52.192;5.396;2022-09-23T10:03:38;101681.84;;;16.28;63.21
74125;BME280;62475;52.192;5.396;2022-09-23T10:06:23;101679.53;;;16.43;61.66
74125;BME280;62475;52.192;5.396;2022-09-23T10:09:14;101678.63;;;16.70;61.97
74125;BME280;62475;52.192;5.396;2022-09-23T10:11:41;101675.66;;;16.66;61.07
74125;BME280;62475;52.192;5.396;2022-09-23T10:14:14;101687.22;;;16.82;60.86
74125;BME280;62475;52.192;5.396;2022-09-23T10:16:41;101678.22;;;16.98;60.83
74125;BME280;62475;52.192;5.396;2022-09-23T10:19:36;101674.28;;;16.99;58.96
74125;BME280;62475;52.192;5.396;2022-09-23T10:22:04;101676.22;;;16.90;58.73
74125;BME280;62475;52.192;5.396;2022-09-23T10:24:34;101648.69;;;16.80;60.17
74125;BME280;62475;52.192;5.396;2022-09-23T10:27:07;101667.75;;;16.95;61.32
74125;BME280;62475;52.192;5.396;2022-09-23T10:29:47;101662.66;;;16.97;59.24
74125;BME280;62475;52.192;5.396;2022-09-23T10:32:35;101653.88;;;17.26;60.89
74125;BME280;62475;52.192;5.396;2022-09-23T10:43:26;101652.09;;;17.30;60.36
74125;BME280;62475;52.192;5.396;2022-09-23T10:46:19;101645.59;;;17.04;59.46
74125;BME280;62475;52.192;5.396;2022-09-23T10:54:37;101664.06;;;17.39;59.59
74125;BME280;62475;52.192;5.396;2022-09-23T11:00:15;101670.63;;;17.43;59.96
74125;BME280;62475;52.192;5.396;2022-09-23T11:17:01;101664.47;;;16.93;63.30
74125;BME280;62475;52.192;5.396;2022-09-23T11:30:19;101663.63;;;16.93;62.88
74125;BME280;62475;52.192;5.396;2022-09-23T11:35:25;101658.31;;;17.05;63.69
74125;BME280;62475;52.192;5.396;2022-09-23T11:38:08;101654.84;;;16.99;63.53
74125;BME280;62475;52.192;5.396;2022-09-23T11:40:37;101657.50;;;17.04;65.01
74125;BME280;62475;52.192;5.396;2022-09-23T11:43:19;101646.28;;;17.10;64.70
74125;BME280;62475;52.192;5.396;2022-09-23T11:45:55;101624.06;;;17.10;62.94
74125;BME280;62475;52.192;5.396;2022-09-23T11:51:00;101646.22;;;17.62;64.12
74125;BME280;62475;52.192;5.396;2022-09-23T11:53:45;101638.09;;;17.74;63.35
74125;BME280;62475;52.192;5.396;2022-09-23T11:56:22;101640.69;;;17.71;62.19
74125;BME280;62475;52.192;5.396;2022-09-23T11:59:13;101639.94;;;17.87;61.53
74125;BME280;62475;52.192;5.396;2022-09-23T12:01:54;101637.19;;;18.04;62.50
74125;BME280;62475;52.192;5.396;2022-09-23T12:04:28;101634.06;;;17.97;60.38
74125;BME280;62475;52.192;5.396;2022-09-23T12:07:33;101625.41;;;18.07;60.76
74125;BME280;62475;52.192;5.396;2022-09-23T12:10:06;101615.94;;;18.26;61.32
74125;BME280;62475;52.192;5.396;2022-09-23T12:15:26;101620.00;;;18.11;60.14
74125;BME280;62475;52.192;5.396;2022-09-23T12:27:07;101619.34;;;17.97;60.46
74125;BME280;62475;52.192;5.396;2022-09-23T12:29:35;101610.31;;;17.91;60.87
74125;BME280;62475;52.192;5.396;2022-09-23T12:32:02;101594.63;;;17.95;60.26
74125;BME280;62475;52.192;5.396;2022-09-23T12:34:41;101606.25;;;17.97;61.20
74125;BME280;62475;52.192;5.396;2022-09-23T12:37:22;101610.44;;;17.69;59.41
74125;BME280;62475;52.192;5.396;2022-09-23T12:39:48;101596.56;;;17.69;60.32
74125;BME280;62475;52.192;5.396;2022-09-23T12:42:16;101603.25;;;17.68;61.21
74125;BME280;62475;52.192;5.396;2022-09-23T12:44:45;101577.38;;;17.51;60.84
74125;BME280;62475;52.192;5.396;2022-09-23T12:49:46;101600.34;;;17.73;61.46
74125;BME280;62475;52.192;5.396;2022-09-23T12:52:23;101597.84;;;17.63;59.12
74125;BME280;62475;52.192;5.396;2022-09-23T12:54:50;101577.28;;;17.73;60.14
74125;BME280;62475;52.192;5.396;2022-09-23T13:02:34;101586.81;;;18.06;60.69
74125;BME280;62475;52.192;5.396;2022-09-23T13:05:17;101592.19;;;18.02;59.80
74125;BME280;62475;52.192;5.396;2022-09-23T13:08:13;101583.50;;;17.78;61.30
74125;BME280;62475;52.192;5.396;2022-09-23T13:10:43;101591.88;;;18.04;61.60
74125;BME280;62475;52.192;5.396;2022-09-23T13:13:26;101588.59;;;17.93;59.77
74125;BME280;62475;52.192;5.396;2022-09-23T13:16:09;101581.69;;;17.74;59.71
74125;BME280;62475;52.192;5.396;2022-09-23T13:19:04;101586.56;;;17.60;60.49
74125;BME280;62475;52.192;5.396;2022-09-23T13:29:20;101570.88;;;17.64;61.35
74125;BME280;62475;52.192;5.396;2022-09-23T13:31:47;101556.81;;;17.69;63.11
74125;BME280;62475;52.192;5.396;2022-09-23T13:34:19;101571.88;;;17.68;61.39
74125;BME280;62475;52.192;5.396;2022-09-23T13:36:47;101571.38;;;17.66;61.05
74125;BME280;62475;52.192;5.396;2022-09-23T13:39:22;101576.72;;;17.54;60.50
74125;BME280;62475;52.192;5.396;2022-09-23T13:41:51;101566.72;;;17.44;61.03
74125;BME280;62475;52.192;5.396;2022-09-23T13:44:17;101567.22;;;17.46;62.02
74125;BME280;62475;52.192;5.396;2022-09-23T13:46:52;101567.41;;;17.50;62.37
74125;BME280;62475;52.192;5.396;2022-09-23T13:49:35;101568.22;;;17.50;61.57
74125;BME280;62475;52.192;5.396;2022-09-23T13:52:02;101558.78;;;17.60;61.53
74125;BME280;62475;52.192;5.396;2022-09-23T13:54:45;101556.47;;;17.62;62.83
74125;BME280;62475;52.192;5.396;2022-09-23T13:57:55;101558.63;;;17.65;61.23
74125;BME280;62475;52.192;5.396;2022-09-23T14:00:35;101552.06;;;17.52;61.64
74125;BME280;62475;52.192;5.396;2022-09-23T14:03:11;101548.63;;;17.64;61.81
74125;BME280;62475;52.192;5.396;2022-09-23T14:05:40;101566.66;;;17.83;62.12
74125;BME280;62475;52.192;5.396;2022-09-23T14:08:06;101549.97;;;17.75;61.08
74125;BME280;62475;52.192;5.396;2022-09-23T14:10:32;101536.41;;;17.73;61.09
74125;BME280;62475;52.192;5.396;2022-09-23T14:12:57;101543.09;;;17.81;60.67
74125;BME280;62475;52.192;5.396;2022-09-23T14:15:23;101534.47;;;17.82;61.86
74125;BME280;62475;52.192;5.396;2022-09-23T14:18:04;101549.66;;;17.85;61.51
74125;BME280;62475;52.192;5.396;2022-09-23T14:20:30;101533.47;;;17.87;61.17
74125;BME280;62475;52.192;5.396;2022-09-23T14:23:11;101536.75;;;18.06;62.36
74125;BME280;62475;52.192;5.396;2022-09-23T14:25:39;101534.97;;;17.93;61.82
74125;BME280;62475;52.192;5.396;2022-09-23T14:28:06;101543.09;;;17.81;61.39
74125;BME280;62475;52.192;5.396;2022-09-23T14:30:38;101523.03;;;17.75;61.53
74125;BME280;62475;52.192;5.396;2022-09-23T14:33:08;101531.34;;;17.84;61.56
74125;BME280;62475;52.192;5.396;2022-09-23T14:35:40;101524.31;;;17.95;62.19
74125;BME280;62475;52.192;5.396;2022-09-23T14:38:09;101529.06;;;18.03;61.79
74125;BME280;62475;52.192;5.396;2022-09-23T14:40:55;101505.34;;;17.88;62.22
74125;BME280;62475;52.192;5.396;2022-09-23T14:43:47;101510.75;;;17.85;62.33
74125;BME280;62475;52.192;5.396;2022-09-23T14:46:18;101523.53;;;17.94;62.58
74125;BME280;62475;52.192;5.396;2022-09-23T14:48:51;101510.91;;;17.88;63.22
74125;BME280;62475;52.192;5.396;2022-09-23T14:51:18;101524.97;;;17.92;64.25
74125;BME280;62475;52.192;5.396;2022-09-23T14:53:44;101516.97;;;17.99;64.61
74125;BME280;62475;52.192;5.396;2022-09-23T14:56:18;101524.19;;;18.00;65.82
74125;BME280;62475;52.192;5.396;2022-09-23T14:58:57;101502.91;;;17.87;66.02
74125;BME280;62475;52.192;5.396;2022-09-23T15:01:26;101510.41;;;17.86;66.82